Time;durP1;ratioP1;P1;durP2;ratioP2;P2;SDS_P1;SDS_P2;PMS_P1;PMS_P2;Temp;Humidity;BMP_temperature;BMP_pressure;BME280_temperature;BME280_humidity;BME280_pressure;Samples;Min_cycle;Max_cycle;Signal;HPM_P1;HPM_P2
2020/12/30 00:00:09;;;;;;;30.07;18.40;;;3.50;98.00;;;;;;5016616;28;20037;-75
2020/12/30 00:02:39;;;;;;;34.57;20.47;;;3.50;98.00;;;;;;5048122;28;20037;-75
2020/12/30 00:05:10;;;;;;;38.90;23.20;;;3.40;98.00;;;;;;5057712;28;20049;-75
2020/12/30 00:07:40;;;;;;;37.93;23.27;;;3.30;98.00;;;;;;5050160;28;20060;-75
2020/12/30 00:10:11;;;;;;;33.10;20.87;;;3.30;98.00;;;;;;5018825;28;20562;-75
2020/12/30 00:12:39;;;;;;;33.70;19.90;;;3.30;98.00;;;;;;5048658;28;20603;-75
2020/12/30 00:15:08;;;;;;;33.23;22.40;;;3.20;98.00;;;;;;5036943;28;20284;-76
2020/12/30 00:17:38;;;;;;;35.17;20.93;;;3.20;98.10;;;;;;5057542;28;20037;-75
2020/12/30 00:20:09;;;;;;;36.87;22.47;;;3.20;98.10;;;;;;5054904;28;20047;-75
2020/12/30 00:22:36;;;;;;;31.07;20.17;;;3.10;98.10;;;;;;5050173;28;20025;-75
2020/12/30 00:25:07;;;;;;;33.37;19.77;;;3.10;98.10;;;;;;5056740;28;20044;-75
2020/12/30 00:27:34;;;;;;;37.23;22.03;;;3.00;98.10;;;;;;5037322;28;20392;-75
2020/12/30 00:30:01;;;;;;;39.43;23.00;;;3.00;98.10;;;;;;5016405;28;20422;-75
2020/12/30 00:32:27;;;;;;;28.60;20.00;;;3.00;98.10;;;;;;5035132;28;20045;-75
2020/12/30 00:34:54;;;;;;;33.70;20.90;;;3.00;98.10;;;;;;5038887;28;20495;-75
2020/12/30 00:37:20;;;;;;;35.27;22.50;;;2.90;98.10;;;;;;5053421;28;20037;-75
2020/12/30 00:39:48;;;;;;;38.20;22.50;;;2.90;98.10;;;;;;5033333;28;20403;-75
2020/12/30 00:42:14;;;;;;;30.47;19.47;;;2.80;98.10;;;;;;5037231;28;20040;-75
2020/12/30 00:44:41;;;;;;;29.97;19.97;;;2.80;98.10;;;;;;5037110;28;20044;-75
2020/12/30 00:47:07;;;;;;;32.27;19.50;;;2.80;98.10;;;;;;5055604;28;20059;-75
2020/12/30 00:49:35;;;;;;;37.43;23.00;;;2.80;98.10;;;;;;5040306;28;20048;-75
2020/12/30 00:52:02;;;;;;;42.60;24.77;;;2.80;98.20;;;;;;5058711;28;20036;-75
2020/12/30 00:54:38;;;;;;;35.67;24.20;;;2.70;98.20;;;;;;5057663;28;20401;-76
2020/12/30 00:57:05;;;;;;;36.50;22.67;;;2.70;98.10;;;;;;5014675;28;20041;-75
2020/12/30 00:59:34;;;;;;;33.37;21.77;;;2.70;98.10;;;;;;5037075;28;20043;-76
2020/12/30 01:02:02;;;;;;;33.23;19.60;;;2.60;98.10;;;;;;5043800;28;20032;-75
2020/12/30 01:04:33;;;;;;;36.03;22.67;;;2.60;98.10;;;;;;5052979;28;20044;-75
2020/12/30 01:06:59;;;;;;;37.73;23.70;;;2.60;98.10;;;;;;5061512;28;20036;-75
2020/12/30 01:09:26;;;;;;;31.93;20.47;;;2.60;98.10;;;;;;5054263;28;20403;-76
2020/12/30 01:11:59;;;;;;;36.23;21.80;;;2.50;98.10;;;;;;5061869;28;20416;-77
2020/12/30 01:14:25;;;;;;;46.13;25.75;;;2.50;98.10;;;;;;5054391;28;20036;-78
2020/12/30 01:16:52;;;;;;;38.30;24.33;;;2.50;98.10;;;;;;5050927;28;20056;-77
2020/12/30 01:19:19;;;;;;;27.60;18.43;;;2.50;98.20;;;;;;5055419;28;20474;-77
2020/12/30 01:21:46;;;;;;;36.23;22.43;;;2.40;98.10;;;;;;5038133;28;20044;-77
2020/12/30 01:24:13;;;;;;;34.67;21.87;;;2.40;98.10;;;;;;5037744;28;20029;-78
2020/12/30 01:26:40;;;;;;;45.43;26.23;;;2.30;98.10;;;;;;5051025;28;20048;-78
2020/12/30 01:29:07;;;;;;;42.93;26.63;;;2.30;98.10;;;;;;5053393;28;20053;-78
2020/12/30 01:31:35;;;;;;;38.00;22.93;;;2.30;98.10;;;;;;5055188;28;20049;-77
2020/12/30 01:34:03;;;;;;;42.53;25.73;;;2.30;98.40;;;;;;5054273;28;20048;-77
2020/12/30 01:36:29;;;;;;;33.90;21.90;;;2.30;98.20;;;;;;5058709;28;20041;-78
2020/12/30 01:38:56;;;;;;;39.73;21.60;;;2.20;98.10;;;;;;5055095;28;20510;-78
2020/12/30 01:41:23;;;;;;;38.03;23.50;;;2.20;98.20;;;;;;5056928;28;20048;-77
2020/12/30 01:43:57;;;;;;;40.50;25.03;;;2.20;98.20;;;;;;5039411;28;20036;-77
2020/12/30 01:46:38;;;;;;;37.70;23.40;;;2.20;98.20;;;;;;5057499;28;20059;-77
2020/12/30 01:49:12;;;;;;;39.13;23.97;;;2.10;98.40;;;;;;5064900;28;20032;-77
2020/12/30 01:51:40;;;;;;;31.20;19.67;;;2.10;98.20;;;;;;5051738;28;20118;-77
2020/12/30 01:54:16;;;;;;;41.47;24.47;;;2.10;98.20;;;;;;5051285;28;20048;-77
2020/12/30 01:56:44;;;;;;;47.17;28.00;;;2.10;98.20;;;;;;5040705;28;20040;-77
2020/12/30 01:59:14;;;;;;;42.10;25.37;;;2.10;98.30;;;;;;5022944;28;20036;-77
2020/12/30 02:01:43;;;;;;;45.10;26.20;;;2.10;98.40;;;;;;5055903;28;20053;-77
2020/12/30 02:04:15;;;;;;;42.97;23.17;;;2.20;98.50;;;;;;5041016;28;20040;-77
2020/12/30 02:06:42;;;;;;;53.90;29.73;;;2.30;98.50;;;;;;5058434;28;20040;-77
2020/12/30 02:09:08;;;;;;;49.17;28.90;;;2.40;98.50;;;;;;5058806;28;20483;-77
2020/12/30 02:11:35;;;;;;;46.43;27.93;;;2.40;98.40;;;;;;5060970;28;20379;-77
2020/12/30 02:14:12;;;;;;;44.47;24.80;;;2.40;98.30;;;;;;5061024;28;20419;-77
2020/12/30 02:16:50;;;;;;;38.67;22.77;;;2.30;98.30;;;;;;5054126;28;20721;-77
2020/12/30 02:19:17;;;;;;;45.20;26.27;;;2.30;98.30;;;;;;5054367;28;20025;-78
2020/12/30 02:21:44;;;;;;;50.73;28.13;;;2.30;98.30;;;;;;5039646;28;20048;-78
2020/12/30 02:24:14;;;;;;;35.67;22.70;;;2.30;98.30;;;;;;5062886;28;20046;-78
2020/12/30 02:26:41;;;;;;;43.83;26.67;;;2.30;98.40;;;;;;5059024;28;20403;-77
2020/12/30 02:29:07;;;;;;;48.87;26.87;;;2.30;98.40;;;;;;5052095;28;20045;-77
2020/12/30 02:31:34;;;;;;;42.00;22.70;;;2.30;98.40;;;;;;5020190;28;20033;-77
2020/12/30 02:34:00;;;;;;;47.13;26.20;;;2.30;98.40;;;;;;5019474;28;20424;-77
2020/12/30 02:36:27;;;;;;;44.10;27.07;;;2.30;98.40;;;;;;5056235;28;20383;-77
2020/12/30 02:38:54;;;;;;;45.37;26.70;;;2.30;98.40;;;;;;5020322;28;20452;-77
2020/12/30 02:41:21;;;;;;;46.47;28.30;;;2.30;98.40;;;;;;5040659;28;20049;-77
2020/12/30 02:43:48;;;;;;;45.03;27.70;;;2.30;98.30;;;;;;5054440;28;20048;-77
2020/12/30 02:46:14;;;;;;;41.87;23.40;;;2.20;98.30;;;;;;5055375;28;20032;-77
2020/12/30 02:48:41;;;;;;;31.80;20.03;;;2.20;98.30;;;;;;5044767;28;20037;-78
2020/12/30 02:51:07;;;;;;;43.83;26.13;;;2.10;98.30;;;;;;5060414;28;20043;-77
2020/12/30 02:53:34;;;;;;;51.20;28.67;;;2.10;98.30;;;;;;5042508;28;20063;-77
2020/12/30 02:56:00;;;;;;;50.57;30.40;;;2.10;98.30;;;;;;5056289;28;20047;-78
2020/12/30 02:58:27;;;;;;;45.20;27.37;;;2.10;98.30;;;;;;5055579;28;20040;-78
2020/12/30 03:00:53;;;;;;;48.50;28.80;;;2.00;98.30;;;;;;5058006;28;20052;-77
2020/12/30 03:03:20;;;;;;;43.90;27.37;;;2.00;98.30;;;;;;5052745;28;20037;-78
2020/12/30 03:05:47;;;;;;;47.07;28.43;;;2.00;98.30;;;;;;5032560;28;20044;-78
2020/12/30 03:08:13;;;;;;;49.17;29.67;;;1.90;98.30;;;;;;5038272;28;20037;-77
2020/12/30 03:10:40;;;;;;;41.03;24.23;;;1.90;98.40;;;;;;5057692;28;20372;-77
2020/12/30 03:13:06;;;;;;;45.13;25.50;;;1.90;98.40;;;;;;5049167;28;20391;-77
2020/12/30 03:15:33;;;;;;;45.63;28.03;;;1.90;98.40;;;;;;5039828;28;20045;-77
2020/12/30 03:17:59;;;;;;;39.77;24.53;;;1.90;98.40;;;;;;5055411;28;20606;-78
2020/12/30 03:20:26;;;;;;;51.57;28.63;;;1.90;98.40;;;;;;5038764;28;20033;-77
2020/12/30 03:22:52;;;;;;;46.30;26.83;;;1.90;98.40;;;;;;5057657;28;20491;-77
2020/12/30 03:25:19;;;;;;;55.60;30.63;;;1.90;98.50;;;;;;5054581;28;20044;-78
2020/12/30 03:27:45;;;;;;;53.57;28.90;;;2.00;98.60;;;;;;5040614;28;20075;-78
2020/12/30 03:30:12;;;;;;;43.63;25.93;;;2.10;98.70;;;;;;5055010;28;20052;-78
2020/12/30 03:32:38;;;;;;;37.97;23.57;;;2.10;98.60;;;;;;5049487;28;20060;-78
2020/12/30 03:35:05;;;;;;;37.30;21.87;;;2.20;98.70;;;;;;5050382;28;20049;-78
2020/12/30 03:37:32;;;;;;;38.23;21.43;;;2.30;98.60;;;;;;5032090;28;20033;-78
2020/12/30 03:39:58;;;;;;;40.87;23.93;;;2.40;98.60;;;;;;5049658;28;20045;-78
2020/12/30 03:42:25;;;;;;;41.53;23.03;;;2.40;98.60;;;;;;5053206;28;20041;-77
2020/12/30 03:44:51;;;;;;;44.07;25.67;;;2.50;98.60;;;;;;5021433;28;20048;-78
2020/12/30 03:47:18;;;;;;;50.87;29.63;;;2.50;98.60;;;;;;5037249;28;20049;-78
2020/12/30 03:49:44;;;;;;;50.73;28.03;;;2.60;98.60;;;;;;5037021;28;20503;-77
2020/12/30 03:52:11;;;;;;;45.43;26.43;;;2.60;98.60;;;;;;5052379;28;20770;-77
2020/12/30 03:54:37;;;;;;;58.37;33.07;;;2.70;98.60;;;;;;5050826;28;20072;-77
2020/12/30 03:57:04;;;;;;;49.13;28.07;;;2.60;98.60;;;;;;5049989;28;20055;-78
2020/12/30 03:59:30;;;;;;;43.00;26.03;;;2.70;98.60;;;;;;5049839;28;20755;-77
2020/12/30 04:01:57;;;;;;;44.27;26.93;;;2.70;98.60;;;;;;5036744;28;20033;-77
2020/12/30 04:04:23;;;;;;;43.47;25.27;;;2.70;98.60;;;;;;5048193;28;20037;-78
2020/12/30 04:06:50;;;;;;;52.80;30.17;;;2.80;98.60;;;;;;5051129;28;20060;-78
2020/12/30 04:09:16;;;;;;;50.43;27.83;;;2.80;98.60;;;;;;5018269;28;20439;-78
2020/12/30 04:11:43;;;;;;;47.67;28.00;;;2.80;98.60;;;;;;5052121;28;20033;-77
2020/12/30 04:14:09;;;;;;;51.23;30.03;;;2.90;98.60;;;;;;5048995;28;20042;-78
2020/12/30 04:16:36;;;;;;;50.87;28.33;;;2.90;98.60;;;;;;5048350;28;20059;-78
2020/12/30 04:19:03;;;;;;;38.07;21.73;;;3.00;98.60;;;;;;5034178;28;20033;-78
2020/12/30 04:21:29;;;;;;;42.47;24.10;;;3.00;98.60;;;;;;5052599;28;20372;-77
2020/12/30 04:23:56;;;;;;;48.63;27.83;;;3.00;98.60;;;;;;5052533;28;20367;-77
2020/12/30 04:26:22;;;;;;;48.80;28.47;;;3.00;98.50;;;;;;5022982;28;20051;-78
2020/12/30 04:28:49;;;;;;;47.73;27.47;;;3.10;98.50;;;;;;5043773;28;20060;-78
2020/12/30 04:31:18;;;;;;;49.57;29.27;;;3.00;98.40;;;;;;5040458;28;20048;-77
2020/12/30 04:33:45;;;;;;;52.20;30.93;;;3.00;98.40;;;;;;5054796;28;20040;-77
2020/12/30 04:36:13;;;;;;;58.40;34.93;;;3.00;98.40;;;;;;5039239;28;20036;-78
2020/12/30 04:38:40;;;;;;;52.43;29.70;;;3.00;98.40;;;;;;5053831;28;20037;-78
2020/12/30 04:41:09;;;;;;;50.67;28.17;;;2.90;98.30;;;;;;5063699;28;20468;-77
2020/12/30 04:43:38;;;;;;;43.83;25.60;;;2.90;98.30;;;;;;5061620;28;20036;-78
2020/12/30 04:46:05;;;;;;;46.40;27.63;;;2.80;98.40;;;;;;5052192;28;20033;-77
2020/12/30 04:48:33;;;;;;;43.90;25.73;;;2.80;98.40;;;;;;5056596;28;20033;-77
2020/12/30 04:51:01;;;;;;;53.03;31.00;;;2.80;98.40;;;;;;5035038;28;20041;-77
2020/12/30 04:53:28;;;;;;;47.57;27.00;;;2.80;98.50;;;;;;5051330;28;20045;-77
2020/12/30 04:55:58;;;;;;;45.73;25.47;;;2.80;98.60;;;;;;5022387;28;20036;-77
2020/12/30 04:58:31;;;;;;;53.63;29.87;;;2.80;98.60;;;;;;5055488;28;20033;-78
2020/12/30 05:00:59;;;;;;;47.13;27.83;;;2.90;98.60;;;;;;5052289;28;20072;-78
2020/12/30 05:03:31;;;;;;;50.03;29.00;;;2.90;98.60;;;;;;5050245;28;20037;-76
2020/12/30 05:06:05;;;;;;;47.50;28.50;;;3.00;98.60;;;;;;5050066;28;20036;-75
2020/12/30 05:08:37;;;;;;;56.53;30.40;;;3.00;98.50;;;;;;5032490;28;20040;-75
2020/12/30 05:11:03;;;;;;;41.38;25.63;;;3.00;98.50;;;;;;5050747;28;20051;-75
2020/12/30 05:13:30;;;;;;;50.83;30.03;;;3.00;98.50;;;;;;5049094;28;20475;-76
2020/12/30 05:15:59;;;;;;;48.00;28.80;;;3.00;98.50;;;;;;5034234;28;20602;-75
2020/12/30 05:18:26;;;;;;;54.57;29.47;;;3.10;98.50;;;;;;5052084;28;20519;-75
2020/12/30 05:20:52;;;;;;;43.33;25.67;;;3.10;98.50;;;;;;5050594;28;20040;-75
2020/12/30 05:23:19;;;;;;;55.80;31.83;;;3.10;98.50;;;;;;5046896;28;20521;-75
2020/12/30 05:25:45;;;;;;;56.17;31.90;;;3.10;98.40;;;;;;5034704;28;20045;-75
2020/12/30 05:28:13;;;;;;;50.70;30.63;;;3.10;98.40;;;;;;5019241;28;20037;-75
2020/12/30 05:30:41;;;;;;;59.77;35.03;;;3.20;98.40;;;;;;5032543;28;20507;-75
2020/12/30 05:33:08;;;;;;;56.20;32.07;;;3.20;98.40;;;;;;5048730;28;20512;-76
2020/12/30 05:35:35;;;;;;;59.33;33.57;;;3.20;98.40;;;;;;5050156;28;20403;-75
2020/12/30 05:38:03;;;;;;;59.67;32.57;;;3.20;98.40;;;;;;5053752;28;20490;-78
2020/12/30 05:40:32;;;;;;;49.77;29.47;;;3.20;98.40;;;;;;5050289;28;20036;-78
2020/12/30 05:43:14;;;;;;;49.80;28.73;;;3.30;98.40;;;;;;5052995;28;20053;-79
2020/12/30 05:45:48;;;;;;;64.27;34.37;;;3.30;98.40;;;;;;5052078;28;20048;-77
2020/12/30 05:48:17;;;;;;;60.53;34.43;;;3.30;98.40;;;;;;5051929;28;20053;-77
2020/12/30 05:50:57;;;;;;;45.47;26.03;;;3.30;98.30;;;;;;5034768;28;20080;-77
2020/12/30 05:53:24;;;;;;;57.67;32.30;;;3.30;98.30;;;;;;5053654;28;20041;-77
2020/12/30 05:56:17;;;;;;;50.30;31.17;;;3.30;98.30;;;;;;5051527;28;20045;-77
2020/12/30 05:58:47;;;;;;;53.22;28.83;;;3.30;98.40;;;;;;5051260;28;20091;-77
2020/12/30 06:01:24;;;;;;;54.50;30.97;;;3.40;98.40;;;;;;5049439;28;20044;-74
2020/12/30 06:03:51;;;;;;;57.83;32.83;;;3.40;98.30;;;;;;5037945;28;20056;-76
2020/12/30 06:06:21;;;;;;;59.90;34.23;;;3.40;98.30;;;;;;5052440;28;20101;-74
2020/12/30 06:08:49;;;;;;;54.10;32.60;;;3.40;98.30;;;;;;5054061;28;20041;-77
2020/12/30 06:11:23;;;;;;;61.03;33.47;;;3.40;98.50;;;;;;5039226;28;20051;-77
2020/12/30 06:13:54;;;;;;;53.40;30.03;;;3.30;98.20;;;;;;5055305;28;20048;-77
2020/12/30 06:16:29;;;;;;;53.47;33.70;;;3.30;98.30;;;;;;5029277;28;20040;-77
2020/12/30 06:18:59;;;;;;;50.67;31.00;;;3.30;98.40;;;;;;5052589;28;20048;-77
2020/12/30 06:21:27;;;;;;;53.03;31.83;;;3.30;98.40;;;;;;5055843;28;20052;-77
2020/12/30 06:23:56;;;;;;;54.50;31.77;;;3.30;98.40;;;;;;5051791;28;20037;-77
2020/12/30 06:26:27;;;;;;;50.90;29.30;;;3.30;98.40;;;;;;5052223;28;20484;-77
2020/12/30 06:28:55;;;;;;;46.23;25.97;;;3.30;98.40;;;;;;5015074;28;20038;-77
2020/12/30 06:31:22;;;;;;;42.73;27.37;;;3.30;98.30;;;;;;5051161;28;20053;-74
2020/12/30 06:33:49;;;;;;;39.43;23.57;;;3.30;98.30;;;;;;5046393;28;20056;-75
2020/12/30 06:36:24;;;;;;;45.10;28.10;;;3.30;98.40;;;;;;5027416;28;20048;-74
2020/12/30 06:38:51;;;;;;;56.97;31.07;;;3.30;98.40;;;;;;5029342;28;20048;-75
2020/12/30 06:41:18;;;;;;;48.07;27.90;;;3.40;98.40;;;;;;5029552;28;20045;-75
2020/12/30 06:43:50;;;;;;;40.83;25.27;;;3.40;98.40;;;;;;5030075;28;20492;-75
2020/12/30 06:46:22;;;;;;;57.47;32.67;;;3.40;98.40;;;;;;5046789;28;20064;-77
2020/12/30 06:48:53;;;;;;;55.55;31.95;;;3.40;98.40;;;;;;5047968;28;20049;-77
2020/12/30 06:51:20;;;;;;;55.60;31.90;;;3.50;98.40;;;;;;5049241;28;20078;-77
2020/12/30 06:53:56;;;;;;;47.53;29.53;;;3.50;98.60;;;;;;5048219;28;20040;-78
2020/12/30 06:56:36;;;;;;;49.03;29.63;;;3.50;98.30;;;;;;5016381;28;20052;-76
2020/12/30 06:59:04;;;;;;;53.20;32.97;;;3.50;98.30;;;;;;5048297;28;20045;-78
2020/12/30 07:01:54;;;;;;;54.50;31.33;;;3.50;98.30;;;;;;5051015;28;20044;-74
2020/12/30 07:04:22;;;;;;;48.50;29.63;;;3.50;98.30;;;;;;5048118;28;20041;-74
2020/12/30 07:06:49;;;;;;;55.20;31.73;;;3.50;98.30;;;;;;5031294;28;20036;-74
2020/12/30 07:09:16;;;;;;;48.23;28.83;;;3.50;98.30;;;;;;5049187;28;20033;-75
2020/12/30 07:11:53;;;;;;;53.40;31.60;;;3.50;98.30;;;;;;5030532;28;20036;-76
2020/12/30 07:14:24;;;;;;;54.77;33.73;;;3.50;98.30;;;;;;5045319;28;20427;-76
2020/12/30 07:16:53;;;;;;;57.87;32.37;;;3.50;98.30;;;;;;5031758;28;20033;-75
2020/12/30 07:19:31;;;;;;;49.00;28.47;;;3.50;98.30;;;;;;5046479;28;20037;-75
2020/12/30 07:22:09;;;;;;;49.43;30.20;;;3.50;98.30;;;;;;5047109;28;20045;-75
2020/12/30 07:24:49;;;;;;;52.43;29.87;;;3.50;98.30;;;;;;5047427;28;20036;-75
2020/12/30 07:27:16;;;;;;;42.33;24.47;;;3.50;98.40;;;;;;5049452;28;20032;-75
2020/12/30 07:29:44;;;;;;;45.27;26.73;;;3.50;98.40;;;;;;5033039;28;20045;-75
2020/12/30 07:32:12;;;;;;;46.83;29.45;;;3.50;98.40;;;;;;5045686;28;20048;-75
2020/12/30 07:34:49;;;;;;;52.03;33.27;;;3.60;98.40;;;;;;5044358;28;20175;-75
2020/12/30 07:37:17;;;;;;;46.30;28.83;;;3.60;98.60;;;;;;5049430;28;20050;-75
2020/12/30 07:39:46;;;;;;;53.73;31.33;;;3.60;98.30;;;;;;5032077;28;20063;-75
2020/12/30 07:42:14;;;;;;;47.47;28.83;;;3.60;98.30;;;;;;5047805;28;20075;-76
2020/12/30 07:44:48;;;;;;;44.83;28.47;;;3.60;98.30;;;;;;5043831;28;20050;-76
2020/12/30 07:47:16;;;;;;;50.40;29.40;;;3.60;98.30;;;;;;5045881;28;20391;-76
2020/12/30 07:49:43;;;;;;;44.23;25.33;;;3.70;98.30;;;;;;5045503;28;20053;-75
2020/12/30 07:52:10;;;;;;;42.17;25.53;;;3.70;98.30;;;;;;5046387;28;20523;-75
2020/12/30 07:54:38;;;;;;;48.10;28.53;;;3.70;98.30;;;;;;5044598;28;20491;-75
2020/12/30 07:57:12;;;;;;;43.87;27.67;;;3.80;98.30;;;;;;5047455;28;20033;-75
2020/12/30 07:59:46;;;;;;;51.27;29.47;;;3.80;98.30;;;;;;5047505;28;20040;-75
2020/12/30 08:02:15;;;;;;;41.20;25.80;;;3.80;98.30;;;;;;5046327;28;20040;-75
2020/12/30 08:04:43;;;;;;;45.53;28.00;;;3.80;98.30;;;;;;5045212;28;20040;-77
2020/12/30 08:07:11;;;;;;;45.60;26.97;;;3.80;98.30;;;;;;5028936;28;20037;-75
2020/12/30 08:09:42;;;;;;;44.77;25.67;;;3.90;98.30;;;;;;5047735;28;20061;-75
2020/12/30 08:12:14;;;;;;;34.53;22.20;;;3.90;98.30;;;;;;5044482;28;20629;-75
2020/12/30 08:14:42;;;;;;;36.90;22.70;;;3.90;98.20;;;;;;5044377;28;20044;-75
2020/12/30 08:17:11;;;;;;;45.13;26.83;;;4.00;98.20;;;;;;5044879;28;20053;-75
2020/12/30 08:19:47;;;;;;;38.10;23.87;;;4.00;98.20;;;;;;5029044;28;20029;-75
2020/12/30 08:22:16;;;;;;;42.20;24.83;;;4.00;98.20;;;;;;5048360;28;20456;-75
2020/12/30 08:24:50;;;;;;;45.87;27.60;;;4.00;98.20;;;;;;5044803;28;20479;-75
2020/12/30 08:27:20;;;;;;;39.43;24.67;;;3.90;98.20;;;;;;5046996;28;20041;-75
2020/12/30 08:29:47;;;;;;;42.30;24.87;;;4.00;98.20;;;;;;5034302;28;20036;-75
2020/12/30 08:32:34;;;;;;;37.63;24.43;;;4.00;98.20;;;;;;5048833;28;20041;-75
2020/12/30 08:35:15;;;;;;;47.43;27.20;;;4.00;98.20;;;;;;5047216;28;20064;-75
2020/12/30 08:37:47;;;;;;;44.50;26.33;;;4.10;98.30;;;;;;5055848;28;20074;-75
2020/12/30 08:40:23;;;;;;;48.00;28.07;;;4.00;98.20;;;;;;5050205;28;20049;-75
2020/12/30 08:42:50;;;;;;;45.10;28.30;;;4.10;98.20;;;;;;5045778;28;20044;-75
2020/12/30 08:45:38;;;;;;;35.90;24.37;;;4.10;98.20;;;;;;5046185;28;20048;-75
2020/12/30 08:48:16;;;;;;;47.50;28.23;;;4.10;98.20;;;;;;5050032;28;20060;-75
2020/12/30 08:50:43;;;;;;;44.60;26.90;;;4.10;98.20;;;;;;5019667;28;20044;-75
2020/12/30 08:53:10;;;;;;;41.50;27.53;;;4.10;98.20;;;;;;5029074;28;20052;-75
2020/12/30 08:55:36;;;;;;;41.90;26.80;;;4.20;98.20;;;;;;5046322;28;20040;-75
2020/12/30 08:58:03;;;;;;;53.80;32.43;;;4.20;98.20;;;;;;5045216;28;20037;-75
2020/12/30 09:00:36;;;;;;;52.30;30.37;;;4.20;98.20;;;;;;5030955;28;20029;-75
2020/12/30 09:03:16;;;;;;;52.60;31.90;;;4.20;98.20;;;;;;5049660;28;20540;-73
2020/12/30 09:05:53;;;;;;;50.10;29.50;;;4.20;98.20;;;;;;5047180;28;20411;-75
2020/12/30 09:08:23;;;;;;;49.17;31.17;;;4.30;98.20;;;;;;5047721;28;20562;-75
2020/12/30 09:10:50;;;;;;;49.23;28.73;;;4.30;98.20;;;;;;5030980;28;20037;-75
2020/12/30 09:13:30;;;;;;;52.10;31.77;;;4.30;98.20;;;;;;5054467;28;20028;-75
2020/12/30 09:16:04;;;;;;;55.47;33.83;;;4.30;98.10;;;;;;5039364;28;20045;-76
2020/12/30 09:18:31;;;;;;;47.73;29.03;;;4.30;98.10;;;;;;5053478;28;20033;-76
2020/12/30 09:20:58;;;;;;;55.40;33.67;;;4.40;98.20;;;;;;5018934;28;20067;-76
2020/12/30 09:23:25;;;;;;;53.23;31.83;;;4.40;98.20;;;;;;5051811;28;20044;-76
2020/12/30 09:25:53;;;;;;;43.33;28.07;;;4.40;98.20;;;;;;5035196;28;20036;-76
2020/12/30 09:28:21;;;;;;;54.53;33.10;;;4.50;98.20;;;;;;5045509;28;20040;-77
2020/12/30 09:30:49;;;;;;;47.83;29.90;;;4.50;98.10;;;;;;5043700;28;20043;-76
2020/12/30 09:33:18;;;;;;;46.50;30.17;;;4.60;98.10;;;;;;5045876;28;20041;-77
2020/12/30 09:35:45;;;;;;;47.57;29.40;;;4.60;98.10;;;;;;5032705;28;20060;-77
2020/12/30 09:38:19;;;;;;;50.43;32.40;;;4.60;98.10;;;;;;5051658;28;20024;-77
2020/12/30 09:40:48;;;;;;;53.27;33.83;;;4.60;98.10;;;;;;5049664;28;20502;-77
2020/12/30 09:43:19;;;;;;;50.23;32.00;;;4.60;98.00;;;;;;5046645;28;20033;-77
2020/12/30 09:45:47;;;;;;;53.00;32.60;;;4.70;98.10;;;;;;5031716;28;20053;-77
2020/12/30 09:48:19;;;;;;;52.93;31.97;;;4.70;98.10;;;;;;5048722;28;20412;-78
2020/12/30 09:50:51;;;;;;;57.92;32.90;;;4.80;98.10;;;;;;5047677;28;20055;-78
2020/12/30 09:53:18;;;;;;;63.87;34.77;;;4.80;98.10;;;;;;5048830;28;20041;-78
2020/12/30 09:55:46;;;;;;;53.20;33.27;;;4.80;98.00;;;;;;5031427;28;20366;-78
2020/12/30 09:58:13;;;;;;;51.50;32.73;;;4.90;98.00;;;;;;5013572;28;20037;-79
2020/12/30 10:00:40;;;;;;;56.77;35.27;;;5.00;98.00;;;;;;5049400;28;20033;-77
2020/12/30 10:03:06;;;;;;;52.17;32.40;;;5.00;98.00;;;;;;5048809;28;20041;-77
2020/12/30 10:05:33;;;;;;;49.53;30.73;;;5.10;98.00;;;;;;5051057;28;20036;-76
2020/12/30 10:08:00;;;;;;;49.30;31.13;;;5.10;98.00;;;;;;5054345;28;20037;-76
2020/12/30 10:10:27;;;;;;;57.00;34.05;;;5.10;97.90;;;;;;5050359;28;20032;-76
2020/12/30 10:12:53;;;;;;;55.43;32.60;;;5.20;97.90;;;;;;5051165;28;20036;-76
2020/12/30 10:15:20;;;;;;;53.53;32.87;;;5.20;97.80;;;;;;5033603;28;20037;-76
2020/12/30 10:17:47;;;;;;;48.42;31.17;;;5.20;97.70;;;;;;5050626;28;20037;-76
2020/12/30 10:20:14;;;;;;;44.10;29.23;;;5.20;97.70;;;;;;5049410;28;20570;-76
2020/12/30 10:22:41;;;;;;;53.05;30.73;;;5.20;97.70;;;;;;5030403;28;20048;-76
2020/12/30 10:25:09;;;;;;;38.77;25.60;;;5.20;97.70;;;;;;5050989;28;20029;-76
2020/12/30 10:27:36;;;;;;;44.40;27.23;;;5.20;97.70;;;;;;5048164;28;20518;-76
2020/12/30 10:30:07;;;;;;;44.45;29.92;;;5.20;97.70;;;;;;5048399;28;20491;-76
2020/12/30 10:32:34;;;;;;;44.13;27.67;;;5.20;97.70;;;;;;5013155;28;20036;-76
2020/12/30 10:35:01;;;;;;;34.40;23.63;;;5.20;97.80;;;;;;5031364;28;20060;-76
2020/12/30 10:37:29;;;;;;;44.10;28.97;;;5.20;97.80;;;;;;5049410;28;20052;-76
2020/12/30 10:39:55;;;;;;;39.97;27.02;;;5.20;97.70;;;;;;5055614;28;20103;-76
2020/12/30 10:42:22;;;;;;;41.70;28.60;;;5.20;97.70;;;;;;5047603;28;20519;-76
2020/12/30 10:44:48;;;;;;;45.80;31.10;;;5.20;97.70;;;;;;5050568;28;20416;-76
2020/12/30 10:47:15;;;;;;;42.97;28.60;;;5.20;97.70;;;;;;5048531;28;20064;-76
2020/12/30 10:49:41;;;;;;;43.15;27.13;;;5.30;97.70;;;;;;5032889;28;20045;-76
2020/12/30 10:52:08;;;;;;;45.95;29.15;;;5.30;97.70;;;;;;5052823;28;20052;-76
2020/12/30 10:54:34;;;;;;;43.15;29.35;;;5.30;97.70;;;;;;5039184;28;20057;-76
2020/12/30 10:57:01;;;;;;;42.83;26.77;;;5.30;97.70;;;;;;5054874;28;20048;-76
2020/12/30 10:59:27;;;;;;;46.60;30.25;;;5.40;97.70;;;;;;5051046;28;20044;-76
2020/12/30 11:01:54;;;;;;;40.20;26.50;;;5.40;97.60;;;;;;5056272;28;20561;-76
2020/12/30 11:04:21;;;;;;;40.75;26.98;;;5.40;97.70;;;;;;5022130;28;20403;-76
2020/12/30 11:06:47;;;;;;;40.88;26.08;;;5.40;97.60;;;;;;5056717;28;20041;-76
2020/12/30 11:09:14;;;;;;;44.63;27.83;;;5.50;97.60;;;;;;5021577;28;20044;-75
2020/12/30 11:11:41;;;;;;;38.25;24.88;;;5.50;97.60;;;;;;5054202;28;20044;-76
2020/12/30 11:14:08;;;;;;;35.50;24.45;;;5.60;97.60;;;;;;5049673;28;20048;-76
2020/12/30 11:16:34;;;;;;;47.08;29.08;;;5.60;97.60;;;;;;5051516;28;20053;-76
2020/12/30 11:19:01;;;;;;;38.55;26.50;;;5.60;97.50;;;;;;5037838;28;20409;-76
2020/12/30 11:21:28;;;;;;;42.10;26.90;;;5.60;97.50;;;;;;5055723;28;20032;-77
2020/12/30 11:23:54;;;;;;;35.03;24.60;;;5.70;97.60;;;;;;5052752;28;20047;-76
2020/12/30 11:26:21;;;;;;;41.88;25.90;;;5.70;97.60;;;;;;5053582;28;20047;-77
2020/12/30 11:28:47;;;;;;;40.72;27.73;;;5.80;97.60;;;;;;5057426;28;20047;-75
2020/12/30 11:31:14;;;;;;;37.30;25.60;;;5.90;97.60;;;;;;5055989;28;20056;-76
2020/12/30 11:33:41;;;;;;;40.95;27.98;;;5.90;97.40;;;;;;5052199;28;20044;-76
2020/12/30 11:36:07;;;;;;;47.03;34.35;;;6.00;97.60;;;;;;5052994;28;20392;-76
2020/12/30 11:38:34;;;;;;;35.97;26.55;;;6.00;97.30;;;;;;5056720;28;20045;-76
2020/12/30 11:41:01;;;;;;;37.60;26.58;;;6.00;97.30;;;;;;5052894;28;21234;-76
2020/12/30 11:43:28;;;;;;;39.67;25.17;;;6.00;97.20;;;;;;5037181;28;20045;-76
2020/12/30 11:45:55;;;;;;;36.85;25.63;;;5.90;97.20;;;;;;5036430;28;20037;-76
2020/12/30 11:48:22;;;;;;;37.58;25.80;;;5.90;97.20;;;;;;5035058;28;20041;-75
2020/12/30 11:50:48;;;;;;;32.55;22.45;;;5.90;97.20;;;;;;5050259;28;20392;-78
2020/12/30 11:53:15;;;;;;;38.53;25.30;;;5.90;97.20;;;;;;5050128;28;21441;-77
2020/12/30 11:55:42;;;;;;;31.00;23.70;;;5.90;97.20;;;;;;5052060;28;20052;-76
2020/12/30 11:58:08;;;;;;;30.17;21.80;;;5.80;97.20;;;;;;5000446;28;20041;-77
2020/12/30 12:00:35;;;;;;;35.03;23.90;;;5.80;97.30;;;;;;4996852;28;20528;-76
2020/12/30 12:03:01;;;;;;;34.50;22.42;;;5.80;97.20;;;;;;5031677;28;20025;-76
2020/12/30 12:05:28;;;;;;;33.92;22.88;;;5.80;97.20;;;;;;5036843;28;20033;-76
2020/12/30 12:07:54;;;;;;;33.90;22.58;;;5.80;97.20;;;;;;5051402;28;20613;-76
2020/12/30 12:10:21;;;;;;;35.20;23.23;;;5.90;97.30;;;;;;5054883;28;20510;-76
2020/12/30 12:12:47;;;;;;;29.10;20.15;;;5.90;97.30;;;;;;5055729;28;20056;-76
2020/12/30 12:15:14;;;;;;;25.38;17.80;;;6.00;97.30;;;;;;5051464;28;20048;-76
2020/12/30 12:17:41;;;;;;;29.02;20.30;;;6.00;97.30;;;;;;5021653;28;20037;-75
2020/12/30 12:20:08;;;;;;;31.83;21.80;;;6.00;97.20;;;;;;5051976;28;20057;-76
2020/12/30 12:22:34;;;;;;;25.50;19.45;;;6.10;97.20;;;;;;5032796;28;20033;-76
2020/12/30 12:25:01;;;;;;;27.58;19.63;;;6.10;97.10;;;;;;5054310;28;20044;-75
2020/12/30 12:27:27;;;;;;;26.58;18.30;;;6.10;97.10;;;;;;5032401;28;20048;-76
2020/12/30 12:29:54;;;;;;;26.58;18.48;;;6.10;97.10;;;;;;5027740;28;20048;-75
2020/12/30 12:32:24;;;;;;;23.92;18.02;;;6.10;97.10;;;;;;5044801;28;20039;-75
2020/12/30 12:34:53;;;;;;;26.45;17.42;;;6.10;97.10;;;;;;5045509;28;20052;-75
2020/12/30 12:37:21;;;;;;;22.67;15.35;;;6.10;97.10;;;;;;5050564;28;20414;-76
2020/12/30 12:39:49;;;;;;;22.75;15.10;;;6.20;97.10;;;;;;5049193;28;20381;-76
2020/12/30 12:42:17;;;;;;;21.35;14.93;;;6.20;97.00;;;;;;5048323;28;20036;-76